DIRECCIÓN GENERAL DE AERONÁUTICA CIVIL
DIRECCIÓN METEOROLÓGICA DE CHILE
INFORMACIÓN METAR Y TAF

FIR PUERTO MONTT

Estación: SCQP
METAR SCQP 172100Z 26010KT CAVOK 14/09 Q1018=

TAF SCQP 171631Z 1718/1818 20005KT 9999 SCT017 TX13/1718Z TN04/1811Z BECMG 1800/1802 VRB02KT SCT006 BECMG 1805/1807 2000 BR PROB40 TEMPO 1808/1813 0600 FG VV/// BECMG 1816/1818 34010KT 9999 FEW010 BKN040=

Estación: SCVD
METAR SCVD 172100Z VRB03KT CAVOK 16/08 Q1018=

TAF SCVD 171632Z 1718/1806 20005KT 9999 FEW020 TX13/1719Z TN08/1806Z BECMG 1720/1722 27005KT BECMG 1804/1806 31005KT SCT005=

Estación: SCJO
METAR SCJO 172100Z 06003KT 9999 FEW030 BKN200 14/09 Q1018=

TAF SCJO 171633Z 1718/1806 18005KT 9999 SCT020 TX13/1718Z TN07/1806Z=

Estación: SCTE
METAR SCTE 172100Z 20006KT 9999 SCT030 BKN200 11/06 Q1019 NOSIG=

TAF SCTE 171634Z 1718/1818 20004KT 9999 SCT023 TX13/1719Z TN05/1811Z BECMG 1721/1723 32010KT SCT012 SCT070 BECMG 1806/1808 36010KT OVC012 PROB30 TEMPO 1808/1815 7000 -RA BECMG 1815/1817 4000 RA=

Estación: SCPQ
METAR SCPQ 172100Z AUTO 34014KT 2000 BKN022 09/06 Q1017=

TAF SCPQ 171640Z 1718/1806 33010KT 9999 BKN018 TX12/1718Z TN09/1806Z TEMPO 1723/1804 5000 -RA OVC015=

Estación: SCON
METAR SCON 172100Z AUTO VRB05KT 9999 ///026 11/06 Q1017=

TAF SCON 171635Z 1718/1806 36010KT 9999 BKN020 TX13/1719Z TN09/1806Z=

Estación: SCTN
METAR SCTN NIL=

TAF SCTN NIL=

Estación: SCFT
METAR SCFT 172100Z AUTO 26008KT 200V290 CAVOK 15/M05 Q1012=

TAF SCFT NIL=

Estación: SCAP
METAR SCAP 172000Z 22013G24KT 170V260 CAVOK 15/M01 Q1017=

TAF SCAP NIL=

Estación: SCMK
METAR SCMK 172100Z 35009KT 9000 -SHRA OVC015 10/07 Q1014=

TAF SCMK 171636Z 1718/1806 34010KT 9999 BKN015 TX11/1719Z TN09/1806Z BECMG 1800/1802 5000 RA OVC012=

Estación: SCAS
METAR SCAS 171500Z 25012KT 7000 -SHRA FEW033 BKN036 09/05 Q1013=

TAF SCAS NIL=

Estación: SCCY
METAR SCCY 172100Z 22002KT 9999 BKN033 10/03 Q1006=

TAF SCCY 171659Z 1718/1806 30010KT 9999 BKN035 TX11/1719Z TN06/1806Z BECMG 1723/1801 7000 -RA=

Estación: SCBA
METAR SCBA 172100Z 31028G40KT 9999 FEW040 08/02 Q1003=

TAF SCBA 171630Z 1718/1818 31023KT 7000 -SHRA BKN040 TX07/1718Z TN03/ 1807Z TEMPO 1803/1809 9999 BECMG 1810/1812 30015KT=

Estación: SCCC
METAR SCCC 172000Z 29024G36KT 9999 SCT040 SCT200 15/M00 Q1000=

TAF SCCC CECF 7687=

Estación: SCHR
METAR SCHR 172000Z 27004KT 9999 -RA OVC030 10/06 Q0999=

TAF SCHR 171046Z 1712/1800 30012KT 9999 SCT020 TN01/1712Z TX13/1718Z BECMG 1719/1721 32015KT TEMPO 1721/1800 8000 -SHRA BKN018=


Volver